Time;durP1;ratioP1;P1;durP2;ratioP2;P2;SDS_P1;SDS_P2;PMS_P1;PMS_P2;Temp;Humidity;BMP_temperature;BMP_pressure;BME280_temperature;BME280_humidity;BME280_pressure;Samples;Min_cycle;Max_cycle;Signal;HPM_P1;HPM_P2
2022/02/10 00:14:21;;;;;;;6.77;3.60;;;-0.50;99.90;;;;;;5016097;28;20044;-80
2022/02/10 00:19:42;;;;;;;5.93;3.20;;;-0.50;99.90;;;;;;5016302;28;20482;-81
2022/02/10 00:22:15;;;;;;;12.23;4.30;;;-0.50;99.90;;;;;;5015681;28;20156;-81
2022/02/10 00:25:28;;;;;;;6.00;3.30;;;-0.50;99.90;;;;;;5015894;28;20441;-81
2022/02/10 00:36:03;;;;;;;6.47;3.53;;;-0.60;99.90;;;;;;5015597;28;20193;-80
2022/02/10 00:38:33;;;;;;;5.87;2.93;;;-0.70;99.90;;;;;;4997706;28;20046;-80
2022/02/10 00:40:59;;;;;;;5.47;3.27;;;-0.70;99.90;;;;;;5015525;28;20084;-81
2022/02/10 00:43:24;;;;;;;5.80;2.83;;;-0.70;99.90;;;;;;5015340;28;20053;-80
2022/02/10 00:45:50;;;;;;;3.73;2.60;;;-0.60;99.90;;;;;;5014887;28;20422;-81
2022/02/10 00:48:16;;;;;;;4.07;2.43;;;-0.60;99.90;;;;;;4998123;28;20113;-81
2022/02/10 00:50:44;;;;;;;4.43;2.53;;;-0.60;99.90;;;;;;5015120;28;20029;-81
2022/02/10 00:53:23;;;;;;;7.03;2.80;;;-0.60;99.90;;;;;;5015278;28;20073;-81
2022/02/10 00:55:49;;;;;;;4.23;2.47;;;-0.60;99.90;;;;;;5015507;28;20018;-82
2022/02/10 00:58:25;;;;;;;6.30;3.93;;;-0.60;99.90;;;;;;4997458;28;20021;-81
2022/02/10 01:24:26;;;;;;;4.97;2.73;;;-0.60;99.90;;;;;;5014896;28;20113;-81
2022/02/10 01:30:57;;;;;;;4.37;2.57;;;-0.80;99.90;;;;;;5014526;28;20402;-81
2022/02/10 01:33:23;;;;;;;4.30;2.63;;;-0.80;99.90;;;;;;5014524;28;20022;-81
2022/02/10 01:35:48;;;;;;;3.57;2.37;;;-0.80;99.90;;;;;;5014376;28;20055;-82
2022/02/10 01:38:14;;;;;;;4.10;2.57;;;-0.80;99.90;;;;;;5014154;28;20459;-82
2022/02/10 02:05:08;;;;;;;5.77;3.10;;;-1.00;99.90;;;;;;5014255;28;20105;-82
2022/02/10 02:07:35;;;;;;;5.23;3.30;;;-1.10;99.90;;;;;;5013908;28;20025;-80
2022/02/10 02:10:01;;;;;;;4.47;2.77;;;-1.10;99.90;;;;;;5013655;28;20033;-80
2022/02/10 02:12:26;;;;;;;5.90;2.90;;;-1.10;99.90;;;;;;5013764;28;20026;-81
2022/02/10 02:14:52;;;;;;;3.80;2.50;;;-1.10;99.90;;;;;;5013940;28;20026;-81
2022/02/10 02:17:19;;;;;;;4.13;2.07;;;-1.10;99.90;;;;;;5013657;28;20113;-81
2022/02/10 02:19:45;;;;;;;4.80;2.43;;;-1.10;99.90;;;;;;5012349;28;20030;-81
2022/02/10 02:22:13;;;;;;;4.27;2.47;;;-1.10;99.90;;;;;;5013168;28;20030;-81
2022/02/10 02:24:39;;;;;;;4.70;2.40;;;-1.10;99.90;;;;;;5012694;28;20201;-81
2022/02/10 02:27:07;;;;;;;4.40;2.90;;;-1.10;99.90;;;;;;5013346;28;20466;-81
2022/02/10 02:29:41;;;;;;;5.23;2.60;;;-1.20;99.90;;;;;;5013375;28;20014;-81
2022/02/10 02:32:14;;;;;;;4.87;2.70;;;-1.10;99.90;;;;;;5014189;28;20022;-81
2022/02/10 03:04:46;;;;;;;5.57;2.97;;;-1.40;99.90;;;;;;5007228;28;20029;-78
2022/02/10 03:07:17;;;;;;;4.23;2.73;;;-1.40;99.90;;;;;;5012498;28;20028;-79
2022/02/10 03:09:55;;;;;;;4.67;2.47;;;-1.40;99.90;;;;;;5017170;28;20170;-79
2022/02/10 03:12:20;;;;;;;3.60;2.40;;;-1.40;99.90;;;;;;4999637;28;20117;-79
2022/02/10 03:14:50;;;;;;;4.03;2.57;;;-1.40;99.90;;;;;;5017065;28;20112;-78
2022/02/10 03:20:35;;;;;;;3.53;2.50;;;-1.50;99.90;;;;;;5017013;28;20037;-78
2022/02/10 04:03:50;;;;;;;4.40;2.67;;;-1.60;99.90;;;;;;5016908;28;20037;-80
2022/02/10 04:16:46;;;;;;;6.43;2.50;;;-1.70;99.90;;;;;;5016779;28;20029;-80
2022/02/10 04:22:29;;;;;;;3.80;2.50;;;-1.70;99.90;;;;;;4993550;28;20462;-80
2022/02/10 04:27:25;;;;;;;3.20;2.00;;;-1.60;99.90;;;;;;4993633;28;20439;-80
2022/02/10 04:37:28;;;;;;;3.57;2.23;;;-1.60;99.90;;;;;;5013277;28;20068;-80
2022/02/10 04:38:46;;;;;;;6.13;3.10;;;-1.60;99.90;;;;;;5012459;28;20036;-80
2022/02/10 04:45:03;;;;;;;4.78;3.00;;;-1.60;99.90;;;;;;5012809;28;20028;-80
2022/02/10 05:34:29;;;;;;;7.15;4.00;;;-1.70;99.90;;;;;;5015226;28;20028;-76
2022/02/10 05:36:58;;;;;;;8.07;3.37;;;-1.70;99.90;;;;;;5014569;28;20386;-76
2022/02/10 05:39:26;;;;;;;10.37;3.80;;;-1.80;99.90;;;;;;5014429;28;20073;-76
2022/02/10 06:51:13;;;;;;;10.60;4.30;;;-1.60;99.90;;;;;;5006774;28;20096;-81
2022/02/10 07:50:34;;;;;;;9.37;3.83;;;-0.30;99.90;;;;;;5015332;28;20064;-82
2022/02/10 08:55:09;;;;;;;9.53;2.90;;;4.70;99.90;;;;;;5015338;28;20469;-77
2022/02/10 08:57:56;;;;;;;9.50;3.03;;;4.90;99.90;;;;;;5014942;28;20029;-77
2022/02/10 09:55:54;;;;;;;6.20;2.00;;;9.20;99.90;;;;;;5014128;28;20036;-77
2022/02/10 09:58:35;;;;;;;5.77;2.73;;;9.50;99.90;;;;;;5006094;28;20501;-83
2022/02/10 10:03:56;;;;;;;6.93;2.53;;;9.80;99.90;;;;;;5001506;28;20829;-82
2022/02/10 10:06:30;;;;;;;6.40;2.43;;;10.00;99.90;;;;;;5006701;28;20026;-82
2022/02/10 10:09:30;;;;;;;10.10;2.53;;;10.10;99.90;;;;;;5006981;28;20026;-81
2022/02/10 10:14:41;;;;;;;;;;;10.20;99.90;;;;;;5007224;28;20943;-83
2022/02/10 10:20:16;;;;;;;7.53;2.55;;;10.40;99.90;;;;;;5014195;28;20033;-77
2022/02/10 10:23:08;;;;;;;6.83;2.07;;;10.50;99.90;;;;;;5014193;28;20109;-78
2022/02/10 10:56:23;;;;;;;8.07;3.05;;;11.90;99.90;;;;;;5013685;28;20033;-77
2022/02/10 11:38:18;;;;;;;6.97;2.60;;;12.90;99.90;;;;;;5018569;28;20036;-83
2022/02/10 11:44:13;;;;;;;6.57;2.75;;;13.10;99.90;;;;;;4980309;28;20038;-84
2022/02/10 12:43:32;;;;;;;7.85;3.22;;;12.40;99.90;;;;;;5016118;28;20072;-81
2022/02/10 14:13:27;;;;;;;6.35;3.33;;;12.20;99.90;;;;;;4994961;28;20112;-79
2022/02/10 14:18:27;;;;;;;12.57;3.30;;;12.10;99.90;;;;;;4995273;28;20150;-79
2022/02/10 14:26:16;;;;;;;6.30;3.50;;;11.90;99.90;;;;;;4994540;28;20031;-79
2022/02/10 14:28:42;;;;;;;6.93;3.20;;;11.90;99.90;;;;;;4994751;28;20034;-77
2022/02/10 14:31:09;;;;;;;8.20;3.30;;;11.80;99.90;;;;;;4994033;28;20027;-78
2022/02/10 14:33:37;;;;;;;8.00;3.55;;;11.80;99.90;;;;;;4994350;28;20431;-77
2022/02/10 14:36:13;;;;;;;6.93;3.17;;;11.80;99.90;;;;;;4994262;28;20113;-78
2022/02/10 15:46:34;;;;;;;8.50;3.22;;;11.10;99.90;;;;;;5012879;28;20510;-81
2022/02/10 15:49:22;;;;;;;8.67;3.50;;;11.00;99.90;;;;;;5012688;28;20481;-83
2022/02/10 16:10:54;;;;;;;8.43;3.57;;;10.60;99.90;;;;;;5012949;28;20032;-82
2022/02/10 16:18:14;;;;;;;10.57;3.87;;;10.00;99.90;;;;;;5012174;28;20848;-86
2022/02/10 16:20:47;;;;;;;11.10;3.37;;;9.90;99.90;;;;;;5011604;28;20030;-84
2022/02/10 16:23:17;;;;;;;9.00;3.87;;;9.70;99.90;;;;;;5011532;28;20387;-85
2022/02/10 16:26:01;;;;;;;7.10;3.37;;;9.60;99.90;;;;;;4994114;28;20026;-86
2022/02/10 16:28:30;;;;;;;12.30;3.97;;;9.50;99.90;;;;;;4997625;28;20041;-81
2022/02/10 16:30:56;;;;;;;11.37;4.90;;;9.40;99.90;;;;;;5012603;28;20057;-82
2022/02/10 16:33:22;;;;;;;7.73;4.17;;;9.30;99.90;;;;;;5014342;28;20049;-81
2022/02/10 16:35:48;;;;;;;9.27;3.80;;;9.30;99.90;;;;;;5014753;28;20029;-81
2022/02/10 16:38:13;;;;;;;8.63;4.23;;;9.20;99.90;;;;;;5014959;28;20047;-81
2022/02/10 16:40:40;;;;;;;8.40;3.90;;;9.10;99.90;;;;;;5015327;28;20030;-81
2022/02/10 16:43:07;;;;;;;12.37;4.80;;;9.00;99.90;;;;;;5015086;28;20021;-82
2022/02/10 16:45:34;;;;;;;10.37;4.20;;;8.90;99.90;;;;;;4997613;28;20451;-82
2022/02/10 16:47:59;;;;;;;14.53;4.40;;;8.90;99.90;;;;;;5014949;28;20472;-82
2022/02/10 16:50:26;;;;;;;9.50;3.97;;;8.80;99.90;;;;;;4997174;28;20018;-81
2022/02/10 16:53:03;;;;;;;11.20;4.27;;;8.70;99.90;;;;;;5005795;28;20022;-81
2022/02/10 17:20:23;;;;;;;7.73;3.87;;;8.50;99.90;;;;;;5013283;28;20028;-80
2022/02/10 17:25:34;;;;;;;13.00;4.57;;;8.40;99.90;;;;;;5007487;28;20054;-78
2022/02/10 17:28:03;;;;;;;9.13;4.47;;;8.30;99.90;;;;;;5001752;28;20049;-80
2022/02/10 17:46:40;;;;;;;11.20;5.27;;;8.30;99.90;;;;;;5014028;28;20116;-83
2022/02/10 17:52:00;;;;;;;10.40;5.63;;;8.40;99.90;;;;;;5000652;28;20033;-80
2022/02/10 17:54:27;;;;;;;9.73;5.80;;;8.30;99.90;;;;;;5014715;28;20018;-79
2022/02/10 17:56:53;;;;;;;8.37;5.50;;;8.10;99.90;;;;;;5014885;28;20037;-79
2022/02/10 17:59:21;;;;;;;14.70;5.73;;;8.20;99.90;;;;;;5014327;28;20029;-79
2022/02/10 18:01:48;;;;;;;13.87;6.67;;;8.10;99.90;;;;;;5014571;28;20450;-79
2022/02/10 18:04:16;;;;;;;16.27;6.40;;;7.90;99.90;;;;;;5014329;28;20049;-77
2022/02/10 18:06:45;;;;;;;16.40;9.43;;;7.60;99.90;;;;;;5016492;28;20026;-78
2022/02/10 18:14:56;;;;;;;15.43;7.67;;;7.20;99.90;;;;;;5014768;28;20032;-79
2022/02/10 18:19:56;;;;;;;13.30;7.37;;;6.80;99.90;;;;;;5017311;28;20096;-79
2022/02/10 18:27:39;;;;;;;13.17;7.20;;;6.30;99.90;;;;;;5015278;28;20046;-79
2022/02/10 18:54:23;;;;;;;18.20;8.90;;;6.00;99.90;;;;;;5012670;28;20045;-80
2022/02/10 19:10:04;;;;;;;21.53;10.60;;;5.50;99.90;;;;;;5011754;28;20065;-82
2022/02/10 19:12:40;;;;;;;22.20;11.73;;;5.50;99.90;;;;;;5010887;28;20036;-81
2022/02/10 19:15:16;;;;;;;23.13;11.07;;;5.50;99.90;;;;;;4994011;28;20056;-82
2022/02/10 19:17:42;;;;;;;21.77;11.13;;;5.50;99.90;;;;;;4994355;28;20100;-81
2022/02/10 19:20:08;;;;;;;21.67;11.13;;;5.50;99.90;;;;;;5011632;28;20116;-81
2022/02/10 19:22:35;;;;;;;19.17;11.47;;;5.50;99.90;;;;;;5010904;28;20033;-81
2022/02/10 19:25:01;;;;;;;21.93;11.10;;;5.50;99.90;;;;;;5010368;28;20018;-81
2022/02/10 19:27:26;;;;;;;21.03;10.53;;;5.50;99.90;;;;;;5010450;28;20396;-82
2022/02/10 19:29:57;;;;;;;25.40;11.47;;;5.50;99.90;;;;;;4993086;28;20065;-81
2022/02/10 19:32:26;;;;;;;22.60;11.43;;;5.50;99.90;;;;;;5010170;28;20493;-81
2022/02/10 19:34:53;;;;;;;21.10;10.93;;;5.50;99.90;;;;;;4993202;28;20661;-81
2022/02/10 19:37:19;;;;;;;20.23;12.10;;;5.50;99.90;;;;;;5010062;28;20028;-81
2022/02/10 19:39:50;;;;;;;23.40;13.43;;;5.50;99.90;;;;;;5009200;28;20045;-80
2022/02/10 19:42:16;;;;;;;18.77;11.40;;;5.50;99.90;;;;;;5009905;28;20022;-80
2022/02/10 19:44:42;;;;;;;19.40;12.57;;;5.60;99.90;;;;;;5009583;28;20486;-81
2022/02/10 19:47:07;;;;;;;23.53;12.70;;;5.50;99.90;;;;;;4992612;28;20119;-81
2022/02/10 19:49:35;;;;;;;26.47;14.00;;;5.50;99.90;;;;;;5011387;28;20046;-81
2022/02/10 19:52:00;;;;;;;31.67;17.30;;;5.50;99.90;;;;;;5014943;28;20401;-81
2022/02/10 19:54:30;;;;;;;33.57;19.27;;;5.50;99.90;;;;;;5013926;28;20037;-80
2022/02/10 19:56:57;;;;;;;30.73;17.97;;;5.50;99.90;;;;;;5014378;28;20671;-80
2022/02/10 19:59:24;;;;;;;32.77;16.87;;;5.50;99.90;;;;;;5014386;28;20036;-80
2022/02/10 20:01:51;;;;;;;26.93;14.80;;;5.60;99.90;;;;;;5014509;28;20025;-81
2022/02/10 20:04:19;;;;;;;21.63;13.10;;;5.60;99.90;;;;;;5014166;28;20117;-81
2022/02/10 20:06:45;;;;;;;21.97;13.17;;;5.60;99.90;;;;;;5014387;28;20022;-81
2022/02/10 20:09:11;;;;;;;17.43;11.70;;;5.60;99.90;;;;;;5013622;28;20422;-81
2022/02/10 20:11:37;;;;;;;23.37;13.00;;;5.60;99.90;;;;;;5013899;28;20083;-80
2022/02/10 20:14:03;;;;;;;22.30;11.50;;;5.60;99.90;;;;;;5014086;28;20022;-76
2022/02/10 20:16:29;;;;;;;20.87;12.17;;;5.60;99.90;;;;;;5014732;28;20360;-75
2022/02/10 20:18:54;;;;;;;22.23;11.87;;;5.60;99.90;;;;;;5014899;28;20033;-76
2022/02/10 20:21:20;;;;;;;20.90;12.33;;;5.60;99.90;;;;;;5015865;28;20026;-76
2022/02/10 20:23:47;;;;;;;21.10;11.20;;;5.60;99.90;;;;;;5015861;28;20056;-75
2022/02/10 20:26:14;;;;;;;17.80;11.50;;;5.60;99.90;;;;;;5016014;28;20482;-75
2022/02/10 20:28:41;;;;;;;20.00;12.33;;;5.60;99.90;;;;;;5016112;28;20101;-75
2022/02/10 20:31:08;;;;;;;20.90;11.97;;;5.50;99.90;;;;;;5015861;28;20105;-79
2022/02/10 20:33:34;;;;;;;24.20;12.40;;;5.50;99.90;;;;;;5016572;28;20466;-79
2022/02/10 20:36:03;;;;;;;21.03;11.27;;;5.50;99.90;;;;;;5016540;28;20553;-79
2022/02/10 20:38:30;;;;;;;23.47;12.40;;;5.50;99.90;;;;;;5015718;28;20069;-79
2022/02/10 20:41:01;;;;;;;22.23;11.30;;;5.50;99.90;;;;;;5016588;28;20021;-79
2022/02/10 20:43:27;;;;;;;21.13;12.27;;;5.50;99.90;;;;;;4997852;28;20030;-78
2022/02/10 20:46:02;;;;;;;20.07;12.27;;;5.50;99.90;;;;;;5015576;28;20029;-79
2022/02/10 20:48:30;;;;;;;24.60;12.88;;;5.50;99.90;;;;;;5015187;28;20033;-80
2022/02/10 20:50:57;;;;;;;21.30;11.50;;;5.40;99.90;;;;;;5011087;28;20033;-79
2022/02/10 20:53:29;;;;;;;19.50;11.63;;;5.40;99.90;;;;;;5005367;28;20475;-77
2022/02/10 20:55:57;;;;;;;17.07;10.90;;;5.40;99.90;;;;;;4999246;28;20022;-79
2022/02/10 20:58:26;;;;;;;28.77;12.43;;;5.40;99.90;;;;;;5015056;28;20065;-81
2022/02/10 21:00:54;;;;;;;19.77;11.77;;;5.40;99.90;;;;;;5006999;28;20045;-80
2022/02/10 21:03:23;;;;;;;20.40;11.90;;;5.40;99.90;;;;;;5002322;28;20125;-80
2022/02/10 21:05:50;;;;;;;21.57;11.93;;;5.40;99.90;;;;;;5012632;28;20025;-80
2022/02/10 21:08:29;;;;;;;25.70;13.40;;;5.40;99.90;;;;;;5012470;28;20018;-79
2022/02/10 21:10:54;;;;;;;28.97;13.67;;;5.40;99.90;;;;;;5012562;28;20100;-80
2022/02/10 21:13:22;;;;;;;29.30;13.73;;;5.40;99.90;;;;;;5012313;28;20180;-80
2022/02/10 21:15:48;;;;;;;25.20;12.70;;;5.40;99.90;;;;;;5012096;28;20359;-80
2022/02/10 21:18:15;;;;;;;23.57;13.90;;;5.40;99.90;;;;;;4994215;28;20026;-80
2022/02/10 21:20:43;;;;;;;19.57;13.20;;;5.40;99.90;;;;;;5012583;28;20101;-80
2022/02/10 21:25:48;;;;;;;22.20;13.20;;;5.40;99.90;;;;;;5012727;28;20033;-80
2022/02/10 21:28:22;;;;;;;22.47;12.20;;;5.40;99.90;;;;;;5012348;28;20084;-80
2022/02/10 21:30:50;;;;;;;20.07;11.77;;;5.40;99.90;;;;;;5012202;28;20123;-80
2022/02/10 21:38:22;;;;;;;18.13;11.47;;;5.40;99.90;;;;;;4991972;28;20424;-80
2022/02/10 22:20:57;;;;;;;19.33;9.03;;;5.20;99.90;;;;;;5011370;28;20096;-80
2022/02/10 22:23:20;;;;;;;14.63;9.10;;;5.20;99.90;;;;;;5009867;28;20280;-80
2022/02/10 22:25:47;;;;;;;19.13;9.33;;;5.20;99.90;;;;;;5011085;28;20022;-80
2022/02/10 22:29:03;;;;;;;18.00;8.30;;;5.20;99.90;;;;;;5010864;28;20014;-79
2022/02/10 22:36:22;;;;;;;15.40;8.33;;;5.30;99.90;;;;;;5010697;28;20038;-81
2022/02/10 22:38:52;;;;;;;13.63;8.17;;;5.30;99.90;;;;;;5010438;28;20048;-81
2022/02/10 22:41:18;;;;;;;12.77;7.20;;;5.30;99.90;;;;;;5011084;28;20099;-81
2022/02/10 22:43:49;;;;;;;13.83;7.70;;;5.40;99.90;;;;;;5010325;28;20105;-81
2022/02/10 22:46:16;;;;;;;15.17;7.20;;;5.40;99.90;;;;;;5010781;28;20091;-80
2022/02/10 22:48:44;;;;;;;12.00;6.90;;;5.40;99.90;;;;;;5010393;28;20026;-81
2022/02/10 22:51:11;;;;;;;15.67;7.23;;;5.50;99.90;;;;;;5010370;28;20060;-80
2022/02/10 22:53:37;;;;;;;14.67;6.50;;;5.50;99.90;;;;;;4992565;28;20026;-80
2022/02/10 22:56:07;;;;;;;12.20;6.87;;;5.50;99.90;;;;;;5010542;28;20105;-82
2022/02/10 22:58:32;;;;;;;10.07;6.10;;;5.50;99.90;;;;;;5010478;28;20104;-81
2022/02/10 23:00:58;;;;;;;13.13;6.80;;;5.60;99.90;;;;;;5004568;28;20487;-82
2022/02/10 23:03:28;;;;;;;15.07;8.13;;;5.60;99.90;;;;;;4980202;28;20041;-82
2022/02/10 23:05:55;;;;;;;12.20;6.70;;;5.60;99.90;;;;;;4990942;28;20030;-82
2022/02/10 23:08:21;;;;;;;15.97;7.50;;;5.70;99.90;;;;;;4990467;28;20058;-82
2022/02/10 23:10:48;;;;;;;11.53;6.33;;;5.70;99.90;;;;;;4990994;28;20062;-81
2022/02/10 23:13:27;;;;;;;12.50;6.40;;;5.70;99.90;;;;;;4990691;28;20161;-81
2022/02/10 23:15:55;;;;;;;14.73;6.67;;;5.80;99.90;;;;;;5002228;28;20136;-81
2022/02/10 23:18:26;;;;;;;12.50;6.37;;;5.80;99.90;;;;;;4992620;28;20402;-81
2022/02/10 23:20:57;;;;;;;12.10;6.50;;;5.80;99.90;;;;;;4992824;28;20437;-81
2022/02/10 23:23:26;;;;;;;11.67;6.17;;;5.80;99.90;;;;;;4992215;28;20030;-77
2022/02/10 23:25:54;;;;;;;13.80;6.23;;;5.80;99.90;;;;;;5016619;28;20112;-77
2022/02/10 23:28:25;;;;;;;11.07;6.63;;;5.80;99.90;;;;;;5017420;28;20026;-77
2022/02/10 23:30:52;;;;;;;10.20;6.43;;;5.80;99.90;;;;;;4999335;28;20034;-77
2022/02/10 23:33:29;;;;;;;13.60;6.80;;;5.80;99.90;;;;;;5016958;28;20030;-77
2022/02/10 23:38:42;;;;;;;14.87;6.33;;;5.80;99.90;;;;;;5017139;28;20199;-76
2022/02/10 23:43:52;;;;;;;11.70;6.10;;;5.80;99.90;;;;;;5017149;28;20045;-76
2022/02/10 23:46:19;;;;;;;14.90;6.73;;;5.80;99.90;;;;;;5016929;28;20469;-76
2022/02/10 23:48:45;;;;;;;15.60;6.10;;;5.80;99.90;;;;;;5017408;28;20022;-77
2022/02/10 23:51:11;;;;;;;12.67;6.27;;;5.80;99.90;;;;;;4999018;28;20033;-77
2022/02/10 23:53:37;;;;;;;11.80;6.13;;;5.80;99.90;;;;;;4999036;28;20034;-77
2022/02/10 23:56:08;;;;;;;13.10;7.37;;;5.80;99.90;;;;;;5016649;28;20087;-77
